Home > Products > Valid Products > MTR

000
SAUS43 KDLH 171457
MTRGNA
METAR KGNA 171456Z AUTO 06014G24KT 00/M02 A3018 RMK AO2 PK WND
06026/1407 SLP233 T00001017 58001 PWINO





000
SAUS43 KDLH 171357
MTRGNA
METAR KGNA 171356Z AUTO 06016G22KT M01/M02 A3019 RMK AO2 PK WND
06026/1313 SLP234 T10061017 PWINO





000
SAUS43 KDLH 171257
MTRGNA
METAR KGNA 171256Z AUTO 06014G25KT M01/M02 A3019 RMK AO2 SLP237
T10061017 PWINO





000
SAUS43 KDLH 171158
MTRGNA
METAR KGNA 171156Z AUTO 06014G22KT M01/M02 A3019 RMK AO2 PK WND
06026/1145 SLP235 T10061022 11006 21017 56008 PWINO





000
SAUS43 KDLH 171058
MTRGNA
METAR KGNA 171056Z AUTO 06015G23KT M01/M03 A3019 RMK AO2 SLP237
T10111028 PWINO





000
SAUS43 KDLH 170957
MTRGNA
METAR KGNA 170956Z AUTO 06016G23KT M01/M03 A3020 RMK AO2 PK WND
06027/0940 SLP241 T10111028 PWINO





000
SAUS43 KDLH 170857
MTRGNA
METAR KGNA 170856Z AUTO 06016G25KT M01/M03 A3021 RMK AO2 PK WND
07028/0816 SLP243 T10111028 58015 PWINO





000
SAUS43 KDLH 170758
MTRGNA
METAR KGNA 170756Z AUTO 06016G24KT M01/M03 A3023 RMK AO2 SLP248
T10111028 PWINO





000
SAUS43 KDLH 170658
MTRGNA
METAR KGNA 170656Z AUTO 05014G22KT M02/M03 A3024 RMK AO2 PK WND
06027/0616 SLP254 T10171033 PWINO





000
SAUS43 KDLH 170557
MTRGNA
METAR KGNA 170556Z AUTO 06016G22KT M02/M03 A3026 RMK AO2 SLP258
T10171033 11017 21022 410061078 56009 PWINO





000
SAUS43 KDLH 170457
MTRGNA
METAR KGNA 170456Z AUTO 06014G22KT M02/M04 A3026 RMK AO2 SLP260
T10171044 PWINO





000
SAUS43 KDLH 170357
MTRGNA
METAR KGNA 170356Z AUTO 05011G20KT M02/M05 A3027 RMK AO2 SLP264
T10221050 PWINO





000
SAUS43 KDLH 170257
MTRGNA
METAR KGNA 170256Z AUTO 06012KT M02/M06 A3028 RMK AO2 SLP269
T10221056 55001 PWINO





000
SAUS43 KDLH 170157
MTRGNA
METAR KGNA 170156Z AUTO 04009KT M02/M06 A3028 RMK AO2 SLP268
T10221056 PWINO





000
SAUS43 KDLH 170057
MTRGNA
METAR KGNA 170056Z AUTO 06009KT M02/M05 A3028 RMK AO2 SLP268
T10221050 PWINO





000
SAUS43 KDLH 162357
MTRGNA
METAR KGNA 162356Z AUTO 06014KT M02/M05 A3029 RMK AO2 SLP270
T10221050 11006 21028 51009 PWINO





000
SAUS43 KDLH 162257
MTRGNA
METAR KGNA 162256Z AUTO 06010G16KT M03/M05 A3028 RMK AO2 SLP270
T10281050 PWINO





000
SAUS43 KDLH 162157
MTRGNA
METAR KGNA 162156Z AUTO 06010KT M02/M06 A3028 RMK AO2 SLP269
T10221061 PWINO





000
SAUS43 KDLH 162057
MTRGNA
METAR KGNA 162056Z AUTO 08014KT M01/M08 A3026 RMK AO2 SLP261
T10111078 56003 PWINO





000
SAUS43 KDLH 161957
MTRGNA
METAR KGNA 161956Z AUTO 07014G19KT M01/M08 A3026 RMK AO2 SLP264
T10111078 PWINO





000
SAUS43 KDLH 161858
MTRGNA
METAR KGNA 161856Z AUTO 07012G20KT M01/M07 A3026 RMK AO2 SLP261
T10111067 PWINO





000
SAUS43 KDLH 161757
MTRGNA
METAR KGNA 161756Z AUTO 07012KT M01/M07 A3027 RMK AO2 SLP264
T10111072 11006 21044 51000 PWINO





000
SAUS43 KDLH 161657
MTRGNA
METAR KGNA 161656Z AUTO 07011KT M01/M08 A3027 RMK AO2 SLP264
T10111078 PWINO





000
SAUS43 KDLH 161557
MTRGNA
METAR KGNA 161556Z AUTO 07012KT M01/M09 A3027 RMK AO2 SLP263
T10061089 PWINO





000
SAUS43 KDLH 161457
MTRGNA
METAR KGNA 161456Z AUTO 07011KT M01/M10 A3027 RMK AO2 SLP264
T10111100 51014 PWINO





000
SAUS43 KDLH 161358
MTRGNA
METAR KGNA 161356Z AUTO 07008KT M02/M11 A3026 RMK AO2 SLP259
T10171106 PWINO





000
SAUS43 KDLH 161257
MTRGNA
METAR KGNA 161256Z AUTO 05006KT M03/M11 A3024 RMK AO2 SLP254
T10281111 PWINO





000
SAUS43 KDLH 161157
MTRGNA
METAR KGNA 161156Z AUTO 04005KT M04/M15 A3023 RMK AO2 SLP250
T10441150 11044 21078 53016 PWINO





000
SAUS43 KDLH 161057
MTRGNA
METAR KGNA 161056Z AUTO VRB06KT M05/M17 A3020 RMK AO2 SLP242
T10501172 PWINO





000
SAUS43 KDLH 160957
MTRGNA
METAR KGNA 160956Z AUTO 03004KT M07/M16 A3019 RMK AO2 SLP238
T10671156 PWINO





000
SAUS43 KDLH 160858
MTRGNA
METAR KGNA 160856Z AUTO 06005KT M05/M17 A3018 RMK AO2 SLP234
T10501167 53008 PWINO





000
SAUS43 KDLH 160757
MTRGNA
METAR KGNA 160756Z AUTO 35003KT M07/M16 A3016 RMK AO2 SLP229
T10721156 PWINO





000
SAUS43 KDLH 160657
MTRGNA
METAR KGNA 160656Z AUTO 00000KT M07/M15 A3017 RMK AO2 SLP231
T10671150 PWINO





000
SAUS43 KDLH 160557
MTRGNA
METAR KGNA 160556Z AUTO 35004KT M06/M15 A3016 RMK AO2 SLP227
T10611150 11017 21067 400111083 51016 PWINO





000
SAUS43 KDLH 160457
MTRGNA
METAR KGNA 160456Z AUTO 00000KT M06/M14 A3015 RMK AO2 SLP225
T10561144 PWINO





000
SAUS43 KDLH 160357
MTRGNA
METAR KGNA 160356Z AUTO 34004KT M04/M16 A3013 RMK AO2 SLP218
T10441156 PWINO





000
SAUS43 KDLH 160257
MTRGNA
METAR KGNA 160256Z AUTO 33004KT M05/M11 A3011 RMK AO2 SLP211
T10501111 51020 PWINO





000
SAUS43 KDLH 160157
MTRGNA
METAR KGNA 160156Z AUTO 30003KT M03/M10 A3010 RMK AO2 SLP208
T10331100 PWINO





000
SAUS43 KDLH 160057
MTRGNA
METAR KGNA 160056Z AUTO 24012G18KT M02/M08 A3007 RMK AO2 SLP197
T10171078 PWINO





000
SAUS43 KDLH 152357
MTRGNA
METAR KGNA 152356Z AUTO 23015KT M02/M09 A3005 RMK AO2 SLP192
T10171089 10011 21028 51005 PWINO





000
SAUS43 KDLH 152257
MTRGNA
METAR KGNA 152256Z AUTO 24014KT M02/M07 A3005 RMK AO2 SLP191
T10171072 PWINO





000
SAUS43 KDLH 152157
MTRGNA
METAR KGNA 152156Z AUTO 23018KT M02/M08 A3004 RMK AO2 SLP189
T10221083 PWINO





000
SAUS43 KDLH 152057
MTRGNA
METAR KGNA 152056Z AUTO 23017G24KT M02/M09 A3004 RMK AO2 PK WND
22026/2042 SLP187 T10221094 56010 PWINO





000
SAUS43 KDLH 151957
MTRGNA
METAR KGNA 151956Z AUTO VRB03KT 00/M18 A3004 RMK AO2 SLP187
T00001183 PWINO





000
SAUS43 KDLH 151857
MTRGNA
METAR KGNA 151856Z AUTO 20013KT M03/M12 A3005 RMK AO2 SLP193
T10281122 PWINO





000
SAUS43 KDLH 151757
MTRGNA
METAR KGNA 151756Z AUTO 24005KT M02/M18 A3007 RMK AO2 SLP197
T10171178 11011 21083 58007 PWINO





000
SAUS43 KDLH 151657
MTRGNA
METAR KGNA 151656Z AUTO VRB04KT M03/M17 A3008 RMK AO2 SLP201
T10281167 PWINO





000
SAUS43 KDLH 151557
MTRGNA
METAR KGNA 151556Z AUTO VRB05KT M04/M16 A3009 RMK AO2 SLP206
T10441161 PWINO





000
SAUS43 KDLH 151457
MTRGNA
METAR KGNA 151456Z AUTO VRB05KT M04/M14 A3009 RMK AO2 SLP205
T10391139 50005 PWINO





000
SAUS43 KDLH 151357
MTRGNA
METAR KGNA 151356Z AUTO VRB06KT M04/M13 A3009 RMK AO2 SLP205
T10441133 PWINO





000
SAUS43 KDLH 151257
MTRGNA
METAR KGNA 151256Z AUTO 00000KT M07/M12 A3009 RMK AO2 SLP205
T10671122 PWINO





000
SAUS43 KDLH 151157
MTRGNA
METAR KGNA 151156Z AUTO 34006KT M08/M13 A3008 RMK AO2 SLP201
T10831133 11072 21083 53009 PWINO





000
SAUS43 KDLH 151057
MTRGNA
METAR KGNA 151056Z AUTO 34009G16KT M08/M13 A3005 RMK AO2 SLP192
T10781128 PWINO





000
SAUS43 KDLH 150957
MTRGNA
METAR KGNA 150956Z AUTO 34012G19KT M08/M13 A3004 RMK AO2 SLP187
T10781128 PWINO





000
SAUS43 KDLH 150857
MTRGNA
METAR KGNA 150856Z AUTO 34010G17KT M08/M13 A3005 RMK AO2 SLP190
T10781128 58001 PWINO





000
SAUS43 KDLH 150757
MTRGNA
METAR KGNA 150756Z AUTO 34008KT M08/M13 A3005 RMK AO2 SLP191
T10781128 PWINO





000
SAUS43 KDLH 150657
MTRGNA
METAR KGNA 150656Z AUTO 34009KT M07/M15 A3005 RMK AO2 SLP192
T10721150 PWINO





000
SAUS43 KDLH 150559 COR
MTRGNA
METAR KGNA 150556Z AUTO 33005KT M07/M14 A3005 RMK AO2 SLP191
T10721144 11028 21072 400061072 56006 PWINO





000
SAUS43 KDLH 150558 COR
MTRGNA
METAR KGNA 150556Z AUTO 33005KT M07/M14 A3005 RMK AO2 SLP191
T10721144 11028 21072 400061072 56006 PWINO





000
SAUS43 KDLH 150457
MTRGNA
METAR KGNA 150456Z AUTO 33005KT M07/M14 A3005 RMK AO2 SLP192
T10671139 PWINO





000
SAUS43 KDLH 150357
MTRGNA
METAR KGNA 150356Z AUTO 34005KT M07/M14 A3006 RMK AO2 SLP194
T10671139 PWINO





000
SAUS43 KDLH 150257
MTRGNA
METAR KGNA 150256Z AUTO 34004KT M06/M14 A3007 RMK AO2 SLP198
T10611139 51012 PWINO





000
SAUS43 KDLH 150157
MTRGNA
METAR KGNA 150156Z AUTO 35003KT M04/M15 A3007 RMK AO2 SLP197
T10441150 PWINO





000
SAUS43 KDLH 150057
MTRGNA
METAR KGNA 150056Z AUTO 35007KT M03/M17 A3005 RMK AO2 SLP190
T10331167 PWINO





000
SAUS43 KDLH 142357
MTRGNA
METAR KGNA 142356Z AUTO VRB04KT M03/M17 A3003 RMK AO2 SLP185
T10281167 10006 21028 53006 PWINO





000
SAUS43 KDLH 142257
MTRGNA
METAR KGNA 142256Z AUTO 33008G17KT 290V360 M01/M16 A3002 RMK AO2
SLP180 T10111161 PWINO





000
SAUS43 KDLH 142157
MTRGNA
METAR KGNA 142156Z AUTO VRB04G17KT M01/M16 A3001 RMK AO2 SLP176
T10061161 PWINO





000
SAUS43 KDLH 142057
MTRGNA
METAR KGNA 142056Z AUTO VRB06KT 00/M16 A3002 RMK AO2 SLP177
T00001161 50001 PWINO





000
SAUS43 KDLH 141957
MTRGNA
METAR KGNA 141956Z AUTO VRB03KT M01/M16 A3002 RMK AO2 SLP179
T10061161 PWINO





000
SAUS43 KDLH 141857
MTRGNA
METAR KGNA 141856Z AUTO 36010KT M01/M16 A3002 RMK AO2 SLP177
T10111161 PWINO





000
SAUS43 KDLH 141757
MTRGNA
METAR KGNA 141756Z AUTO 34009G19KT M01/M16 A3001 RMK AO2 SLP176
T10111156 11011 21061 50004 PWINO





000
SAUS43 KDLH 141657
MTRGNA
METAR KGNA 141656Z AUTO 32011G18KT 270V340 M02/M14 A3002 RMK AO2
SLP177 T10221139 PWINO





000
SAUS43 KDLH 141557
MTRGNA
METAR KGNA 141556Z AUTO 31007G18KT 280V360 M03/M13 A3001 RMK AO2
SLP175 T10281133 PWINO





    US Dept of Commerce
    National Oceanic and Atmospheric Administration
    National Weather Service
    1325 East West Highway
    Silver Spring, MD 20910
    Page Author: NWS Internet Services Team
Disclaimer
Information Quality
Credits
Glossary
Privacy Policy
Freedom of Information Act (FOIA)
About Us
Career Opportunities